createdAt,value
2022-10-31T00:01:24.140Z,99280.91
2022-10-31T00:03:50.765Z,99283.34
2022-10-31T00:06:20.772Z,99286.47
2022-10-31T00:08:52.080Z,99295.00
2022-10-31T00:11:18.665Z,99293.31
2022-10-31T00:13:45.241Z,99286.47
2022-10-31T00:16:22.747Z,99288.41
2022-10-31T00:18:51.496Z,99293.75
2022-10-31T00:21:18.513Z,99301.22
2022-10-31T00:23:46.547Z,99290.78
2022-10-31T00:26:13.412Z,99297.19
2022-10-31T00:28:40.285Z,99296.63
2022-10-31T00:31:10.194Z,99294.19
2022-10-31T00:33:39.142Z,99296.41
2022-10-31T00:36:07.805Z,99299.38
2022-10-31T00:38:34.530Z,99299.41
2022-10-31T00:41:01.116Z,99305.16
2022-10-31T00:43:27.680Z,99312.94
2022-10-31T00:45:54.243Z,99313.50
2022-10-31T00:48:20.849Z,99308.84
2022-10-31T00:50:47.430Z,99307.41
2022-10-31T00:53:14.029Z,99307.44
2022-10-31T00:55:40.612Z,99300.50
2022-10-31T00:58:07.248Z,99300.31
2022-10-31T01:00:33.917Z,99306.31
2022-10-31T01:03:01.157Z,99311.06
2022-10-31T01:05:28.045Z,99311.25
2022-10-31T01:07:54.760Z,99312.41
2022-10-31T01:10:21.657Z,99312.03
2022-10-31T01:12:49.867Z,99313.22
2022-10-31T01:15:22.189Z,99324.56
2022-10-31T01:17:49.168Z,99315.88
2022-10-31T01:20:17.058Z,99310.13
2022-10-31T01:22:43.785Z,99304.47
2022-10-31T01:25:11.401Z,99297.69
2022-10-31T01:27:39.609Z,99299.78
2022-10-31T01:30:07.201Z,99299.50
2022-10-31T01:32:33.825Z,99295.41
2022-10-31T01:35:00.389Z,99295.59
2022-10-31T01:37:27.155Z,99289.78
2022-10-31T01:39:53.753Z,99298.84
2022-10-31T01:42:23.018Z,99298.97
2022-10-31T01:44:53.942Z,99295.41
2022-10-31T01:47:30.885Z,99296.34
2022-10-31T01:50:02.470Z,99290.47
2022-10-31T01:52:33.095Z,99302.22
2022-10-31T01:55:05.218Z,99287.00
2022-10-31T01:57:34.427Z,99282.78
2022-10-31T02:00:06.242Z,99287.56
2022-10-31T02:02:33.136Z,99283.97
2022-10-31T02:05:03.164Z,99287.56
2022-10-31T02:07:42.142Z,99297.53
2022-10-31T02:10:08.838Z,99295.53
2022-10-31T02:12:37.126Z,99298.69
2022-10-31T02:15:05.502Z,99299.28
2022-10-31T02:17:33.465Z,99290.53
2022-10-31T02:20:16.774Z,99293.59
2022-10-31T02:23:29.645Z,99298.16
2022-10-31T02:26:08.345Z,99293.97
2022-10-31T02:29:31.997Z,99293.06
2022-10-31T02:32:09.376Z,99285.88
2022-10-31T02:34:53.627Z,99284.16
2022-10-31T02:37:38.974Z,99286.25
2022-10-31T02:40:37.486Z,99293.22
2022-10-31T02:43:28.282Z,99284.63
2022-10-31T02:46:03.105Z,99288.94
2022-10-31T02:48:31.562Z,99286.88
2022-10-31T02:51:02.280Z,99292.91
2022-10-31T02:53:34.809Z,99287.69
2022-10-31T02:56:19.339Z,99284.44
2022-10-31T02:59:00.629Z,99269.38
2022-10-31T03:02:01.284Z,99273.88
2022-10-31T03:05:13.736Z,99276.16
2022-10-31T03:08:00.985Z,99269.41
2022-10-31T03:11:00.140Z,99274.38
2022-10-31T03:14:01.895Z,99280.59
2022-10-31T03:16:50.290Z,99272.81
2022-10-31T03:19:27.669Z,99277.63
2022-10-31T03:22:09.883Z,99279.19
2022-10-31T03:24:40.133Z,99286.03
2022-10-31T03:27:11.068Z,99283.03
2022-10-31T03:29:40.417Z,99281.72
2022-10-31T03:32:32.735Z,99275.09
2022-10-31T03:35:04.447Z,99267.72
2022-10-31T03:37:33.862Z,99276.16
2022-10-31T03:40:03.486Z,99275.09
2022-10-31T03:42:33.061Z,99272.88
2022-10-31T03:45:12.946Z,99271.88
2022-10-31T03:47:40.908Z,99271.75
2022-10-31T03:50:09.756Z,99268.34
2022-10-31T03:52:49.306Z,99272.09
2022-10-31T03:55:20.291Z,99269.47
2022-10-31T03:58:09.260Z,99264.78
2022-10-31T04:00:39.415Z,99266.63
2022-10-31T04:03:35.591Z,99258.44
2022-10-31T04:06:09.139Z,99260.00
2022-10-31T04:08:49.603Z,99262.03
2022-10-31T04:11:20.031Z,99267.56
2022-10-31T04:13:48.869Z,99268.50
2022-10-31T04:16:17.525Z,99267.56
2022-10-31T04:18:44.921Z,99266.06
2022-10-31T04:21:11.514Z,99265.91
2022-10-31T04:23:38.944Z,99264.56
2022-10-31T04:26:05.721Z,99260.47
2022-10-31T04:28:34.648Z,99265.38
2022-10-31T04:31:01.604Z,99266.84
2022-10-31T04:33:28.176Z,99269.69
2022-10-31T04:35:54.728Z,99271.94
2022-10-31T04:38:21.326Z,99279.34
2022-10-31T04:40:47.899Z,99277.06
2022-10-31T04:43:14.540Z,99287.25
2022-10-31T04:45:41.136Z,99286.50
2022-10-31T04:48:07.702Z,99285.00
2022-10-31T04:50:34.308Z,99287.28
2022-10-31T04:53:00.932Z,99282.00
2022-10-31T04:55:27.522Z,99292.13
2022-10-31T04:57:54.145Z,99285.75
2022-10-31T05:00:22.962Z,99286.38
2022-10-31T05:02:58.613Z,99277.09
2022-10-31T05:05:31.486Z,99280.31
2022-10-31T05:07:58.290Z,99285.38
2022-10-31T05:10:29.646Z,99275.97
2022-10-31T05:12:59.366Z,99274.41
2022-10-31T05:15:28.379Z,99268.03
2022-10-31T05:17:55.935Z,99275.94
2022-10-31T05:20:29.091Z,99277.47
2022-10-31T05:22:58.323Z,99276.75
2022-10-31T05:25:28.527Z,99277.66
2022-10-31T05:27:57.105Z,99265.41
2022-10-31T05:30:28.244Z,99269.94
2022-10-31T05:32:55.406Z,99270.88
2022-10-31T05:35:26.238Z,99272.94
2022-10-31T05:37:53.061Z,99275.63
2022-10-31T05:40:21.827Z,99271.56
2022-10-31T05:42:52.435Z,99266.72
2022-10-31T05:45:20.785Z,99266.84
2022-10-31T05:48:02.633Z,99264.44
2022-10-31T05:50:31.880Z,99265.38
2022-10-31T05:53:04.640Z,99268.03
2022-10-31T05:55:32.409Z,99263.13
2022-10-31T05:57:59.524Z,99264.69
2022-10-31T06:00:26.992Z,99256.41
2022-10-31T06:03:07.038Z,99262.03
2022-10-31T06:05:34.203Z,99262.03
2022-10-31T06:08:01.317Z,99257.69
2022-10-31T06:10:28.689Z,99254.84
2022-10-31T06:12:55.274Z,99262.97
2022-10-31T06:15:24.540Z,99253.88
2022-10-31T06:18:06.298Z,99261.59
2022-10-31T06:20:34.049Z,99260.88
2022-10-31T06:23:01.435Z,99259.00
2022-10-31T06:25:28.839Z,99260.16
2022-10-31T06:27:56.959Z,99258.63
2022-10-31T06:30:23.639Z,99257.31
2022-10-31T06:32:50.604Z,99258.94
2022-10-31T06:35:17.952Z,99258.41
2022-10-31T06:37:51.951Z,99269.38
2022-10-31T06:40:18.622Z,99257.78
2022-10-31T06:42:45.171Z,99264.78
2022-10-31T06:45:11.856Z,99260.00
2022-10-31T06:47:50.940Z,99262.66
2022-10-31T06:50:25.194Z,99260.81
2022-10-31T06:52:57.210Z,99265.88
2022-10-31T06:55:25.578Z,99263.34
2022-10-31T06:57:54.743Z,99259.41
2022-10-31T07:00:26.487Z,99262.75
2022-10-31T07:02:58.834Z,99271.91
2022-10-31T07:05:26.656Z,99272.91
2022-10-31T07:08:02.769Z,99276.53
2022-10-31T07:10:34.371Z,99271.66
2022-10-31T07:13:06.739Z,99284.06
2022-10-31T07:15:38.751Z,99277.13
2022-10-31T07:18:08.018Z,99287.22
2022-10-31T07:20:35.223Z,99288.66
2022-10-31T07:23:02.220Z,99282.97
2022-10-31T07:25:29.398Z,99283.59
2022-10-31T07:27:56.950Z,99290.28
2022-10-31T07:30:23.627Z,99288.84
2022-10-31T07:32:51.534Z,99300.38
2022-10-31T07:35:25.595Z,99292.88
2022-10-31T07:37:53.202Z,99287.19
2022-10-31T07:40:20.505Z,99290.19
2022-10-31T07:42:50.021Z,99292.59
2022-10-31T07:45:21.015Z,99289.03
2022-10-31T07:47:53.167Z,99288.13
2022-10-31T07:50:33.327Z,99290.88
2022-10-31T07:53:08.966Z,99284.84
2022-10-31T07:55:36.498Z,99284.00
2022-10-31T07:58:08.133Z,99288.84
2022-10-31T08:00:36.945Z,99282.88
2022-10-31T08:03:10.377Z,99290.41
2022-10-31T08:05:37.546Z,99290.13
2022-10-31T08:08:07.516Z,99286.97
2022-10-31T08:10:35.586Z,99281.09
2022-10-31T08:13:05.808Z,99279.41
2022-10-31T08:15:34.935Z,99280.16
2022-10-31T08:18:03.105Z,99284.75
2022-10-31T08:20:30.013Z,99284.56
2022-10-31T08:23:02.975Z,99287.78
2022-10-31T08:25:35.391Z,99287.50
2022-10-31T08:28:06.003Z,99285.47
2022-10-31T08:30:36.399Z,99288.38
2022-10-31T08:33:11.381Z,99279.56
2022-10-31T08:35:38.703Z,99274.31
2022-10-31T08:38:05.665Z,99279.09
2022-10-31T08:40:34.490Z,99265.81
2022-10-31T08:43:04.445Z,99269.66
2022-10-31T08:45:33.755Z,99271.75
2022-10-31T08:48:10.276Z,99263.72
2022-10-31T08:50:38.556Z,99264.09
2022-10-31T08:53:08.868Z,99272.19
2022-10-31T08:55:36.671Z,99263.88
2022-10-31T08:58:06.409Z,99270.25
2022-10-31T09:00:34.606Z,99270.59
2022-10-31T09:03:12.020Z,99269.03
2022-10-31T09:05:38.780Z,99258.09
2022-10-31T09:08:09.491Z,99255.75
2022-10-31T09:10:40.710Z,99261.09
2022-10-31T09:13:13.537Z,99255.44
2022-10-31T09:15:42.628Z,99244.44
2022-10-31T09:18:10.226Z,99250.78
2022-10-31T09:20:39.181Z,99257.63
2022-10-31T09:23:12.889Z,99255.41
2022-10-31T09:25:40.236Z,99251.44
2022-10-31T09:28:09.535Z,99248.09
2022-10-31T09:30:36.890Z,99253.75
2022-10-31T09:33:08.142Z,99250.66
2022-10-31T09:35:34.972Z,99247.78
2022-10-31T09:38:05.012Z,99245.63
2022-10-31T09:40:40.068Z,99238.00
2022-10-31T09:43:26.599Z,99239.88
2022-10-31T09:46:08.204Z,99250.97
2022-10-31T09:48:43.276Z,99249.41
2022-10-31T09:51:13.780Z,99252.22
2022-10-31T09:54:01.948Z,99238.22
2022-10-31T09:56:29.708Z,99239.91
2022-10-31T09:59:01.412Z,99238.41
2022-10-31T10:01:48.653Z,99228.34
2022-10-31T10:04:42.447Z,99229.88
2022-10-31T10:07:23.813Z,99232.69
2022-10-31T10:09:50.498Z,99227.78
2022-10-31T10:12:57.708Z,99224.78
2022-10-31T10:15:59.272Z,99231.66
2022-10-31T10:18:46.782Z,99229.81
2022-10-31T10:21:38.730Z,99228.19
2022-10-31T10:24:31.402Z,99223.66
2022-10-31T10:27:12.368Z,99208.94
2022-10-31T10:29:52.275Z,99218.25
2022-10-31T10:32:27.897Z,99225.53
2022-10-31T10:35:20.853Z,99229.31
2022-10-31T10:37:51.871Z,99228.91
2022-10-31T10:40:24.403Z,99216.16
2022-10-31T10:43:25.611Z,99212.72
2022-10-31T10:46:41.760Z,99210.19
2022-10-31T10:49:36.219Z,99202.31
2022-10-31T10:52:43.443Z,99201.56
2022-10-31T10:55:34.378Z,99201.50
2022-10-31T10:58:11.359Z,99204.19
2022-10-31T11:00:47.394Z,99194.75
2022-10-31T11:03:18.720Z,99196.44
2022-10-31T11:05:53.009Z,99190.50
2022-10-31T11:08:27.479Z,99193.00
2022-10-31T11:11:17.408Z,99192.03
2022-10-31T11:13:47.281Z,99189.84
2022-10-31T11:16:40.696Z,99178.00
2022-10-31T11:19:27.323Z,99180.09
2022-10-31T11:21:54.638Z,99183.09
2022-10-31T11:24:26.184Z,99172.50
2022-10-31T11:27:04.451Z,99171.75
2022-10-31T11:29:30.995Z,99161.06
2022-10-31T11:31:59.021Z,99159.97
2022-10-31T11:34:54.791Z,99144.06
2022-10-31T11:37:31.011Z,99152.66
2022-10-31T11:40:02.424Z,99147.72
2022-10-31T11:42:42.268Z,99142.34
2022-10-31T11:45:32.526Z,99140.50
2022-10-31T11:48:02.034Z,99145.13
2022-10-31T11:50:39.627Z,99145.94
2022-10-31T11:53:19.712Z,99136.03
2022-10-31T11:56:06.054Z,99137.13
2022-10-31T11:58:32.725Z,99127.81
2022-10-31T12:00:59.422Z,99123.38
2022-10-31T12:04:08.839Z,99127.34
2022-10-31T12:06:41.986Z,99120.09
2022-10-31T12:09:30.973Z,99115.50
2022-10-31T12:12:34.550Z,99112.84
2022-10-31T12:15:26.367Z,99110.00
2022-10-31T12:18:23.096Z,99104.16
2022-10-31T12:21:03.684Z,99103.25
2022-10-31T12:23:47.707Z,99091.19
2022-10-31T12:26:58.188Z,99097.03
2022-10-31T12:30:09.575Z,99089.34
2022-10-31T12:33:23.362Z,99092.91
2022-10-31T12:36:19.882Z,99085.59
2022-10-31T12:39:34.009Z,99093.97
2022-10-31T12:42:46.374Z,99085.66
2022-10-31T12:45:37.761Z,99081.75
2022-10-31T12:48:38.102Z,99075.50
2022-10-31T12:51:33.892Z,99078.25
2022-10-31T12:54:17.925Z,99072.78
2022-10-31T12:57:08.968Z,99076.34
2022-10-31T12:59:42.929Z,99073.34
2022-10-31T13:02:36.636Z,99060.09
2022-10-31T13:05:20.494Z,99029.41
2022-10-31T13:07:55.350Z,99018.38
2022-10-31T13:10:37.858Z,99023.72
2022-10-31T13:13:42.050Z,99027.56
2022-10-31T13:16:20.174Z,99012.25
2022-10-31T13:18:59.904Z,99009.16
2022-10-31T13:21:58.611Z,99008.81
2022-10-31T13:24:40.404Z,98994.19
2022-10-31T13:27:29.167Z,98996.19
2022-10-31T13:30:19.627Z,98993.00
2022-10-31T13:33:20.850Z,98995.44
2022-10-31T13:36:12.597Z,98988.00
2022-10-31T13:39:30.485Z,98974.88
2022-10-31T13:42:19.044Z,98975.56
2022-10-31T13:44:45.634Z,98977.28
2022-10-31T13:47:30.732Z,98974.22
2022-10-31T13:50:31.782Z,98973.66
2022-10-31T13:53:22.296Z,98961.75
2022-10-31T13:56:08.537Z,98959.41
2022-10-31T13:58:35.903Z,98959.84
2022-10-31T14:01:11.825Z,98964.31
2022-10-31T14:06:58.130Z,98957.69
2022-10-31T14:09:32.879Z,98958.13
2022-10-31T14:12:05.429Z,98955.91
2022-10-31T14:14:43.087Z,98957.47
2022-10-31T14:17:22.270Z,98955.78
2022-10-31T14:20:12.101Z,98958.13
2022-10-31T14:22:42.965Z,98940.69
2022-10-31T14:25:33.983Z,98934.97
2022-10-31T14:28:18.832Z,98943.28
2022-10-31T14:30:57.411Z,98940.84
2022-10-31T14:33:28.342Z,98940.41
2022-10-31T14:39:01.603Z,98946.78
2022-10-31T14:42:23.938Z,98932.97
2022-10-31T14:45:23.696Z,98924.81
2022-10-31T14:48:06.914Z,98905.44
2022-10-31T14:50:53.028Z,98900.22
2022-10-31T14:53:35.052Z,98898.63
2022-10-31T14:56:06.687Z,98909.00
2022-10-31T14:58:43.732Z,98921.22
2022-10-31T15:01:31.158Z,98936.38
2022-10-31T15:04:24.910Z,98934.38
2022-10-31T15:07:26.846Z,98932.53
2022-10-31T15:10:00.090Z,98919.59
2022-10-31T15:12:33.776Z,98913.28
2022-10-31T15:15:25.917Z,98921.47
2022-10-31T15:17:59.408Z,98921.91
2022-10-31T15:20:37.313Z,98914.16
2022-10-31T15:23:04.031Z,98914.16
2022-10-31T15:25:35.412Z,98910.19
2022-10-31T15:28:02.322Z,98911.47
2022-10-31T15:30:31.266Z,98901.28
2022-10-31T15:32:58.959Z,98899.91
2022-10-31T15:35:31.368Z,98896.81
2022-10-31T15:38:00.347Z,98892.16
2022-10-31T15:40:28.823Z,98891.22
2022-10-31T15:43:01.281Z,98893.03
2022-10-31T15:45:31.471Z,98894.59
2022-10-31T15:48:04.431Z,98898.59
2022-10-31T15:50:41.549Z,98904.59
2022-10-31T15:53:23.621Z,98899.88
2022-10-31T15:55:59.567Z,98897.94
2022-10-31T15:58:27.903Z,98891.97
2022-10-31T16:01:07.278Z,98890.09
2022-10-31T16:03:34.975Z,98889.97
2022-10-31T16:06:06.415Z,98882.78
2022-10-31T16:08:51.296Z,98882.13
2022-10-31T16:11:36.202Z,98876.31
2022-10-31T16:14:11.712Z,98880.28
2022-10-31T16:16:45.417Z,98884.22
2022-10-31T16:19:27.484Z,98875.28
2022-10-31T16:22:06.559Z,98876.88
2022-10-31T16:24:50.527Z,98866.13
2022-10-31T16:27:29.441Z,98851.94
2022-10-31T16:30:07.457Z,98838.78
2022-10-31T16:32:37.456Z,98839.03
2022-10-31T16:35:10.214Z,98835.06
2022-10-31T16:37:41.304Z,98829.06
2022-10-31T16:40:16.227Z,98827.59
2022-10-31T16:42:44.413Z,98814.91
2022-10-31T16:45:22.125Z,98797.78
2022-10-31T16:47:49.587Z,98776.81
2022-10-31T16:50:26.861Z,98777.94
2022-10-31T16:53:12.824Z,98788.63
2022-10-31T16:55:47.088Z,98804.72
2022-10-31T16:58:22.990Z,98815.75
2022-10-31T17:00:50.225Z,98803.13
2022-10-31T17:03:17.065Z,98792.59
2022-10-31T17:05:43.792Z,98790.84
2022-10-31T17:08:10.738Z,98797.75
2022-10-31T17:10:38.326Z,98787.84
2022-10-31T17:13:07.093Z,98764.75
2022-10-31T17:15:44.737Z,98745.25
2022-10-31T17:18:16.227Z,98753.69
2022-10-31T17:20:44.240Z,98760.34
2022-10-31T17:23:13.217Z,98780.13
2022-10-31T17:25:40.561Z,98782.41
2022-10-31T17:28:11.404Z,98771.41
2022-10-31T17:30:38.215Z,98769.78
2022-10-31T17:33:04.857Z,98776.63
2022-10-31T17:35:31.513Z,98777.09
2022-10-31T17:37:58.122Z,98789.72
2022-10-31T17:40:25.033Z,98792.03
2022-10-31T17:42:54.786Z,98795.16
2022-10-31T17:45:22.843Z,98788.81
2022-10-31T17:47:52.108Z,98793.13
2022-10-31T17:50:22.207Z,98790.88
2022-10-31T17:52:49.419Z,98782.25
2022-10-31T17:55:16.796Z,98794.44
2022-10-31T17:57:44.307Z,98792.91
2022-10-31T18:00:18.140Z,98797.19
2022-10-31T18:02:44.944Z,98808.59
2022-10-31T18:05:11.910Z,98802.31
2022-10-31T18:07:38.868Z,98803.56
2022-10-31T18:10:06.681Z,98801.25
2022-10-31T18:12:36.813Z,98791.16
2022-10-31T18:15:04.568Z,98776.09
2022-10-31T18:17:32.000Z,98771.31
2022-10-31T18:19:58.735Z,98765.22
2022-10-31T18:22:25.380Z,98769.25
2022-10-31T18:24:51.951Z,98767.25
2022-10-31T18:27:19.686Z,98769.06
2022-10-31T18:29:46.330Z,98758.34
2022-10-31T18:32:12.930Z,98757.28
2022-10-31T18:34:39.547Z,98754.31
2022-10-31T18:37:06.234Z,98733.78
2022-10-31T18:39:33.018Z,98726.00
2022-10-31T18:41:59.618Z,98728.09
2022-10-31T18:44:27.680Z,98730.41
2022-10-31T18:46:54.465Z,98732.38
2022-10-31T18:49:23.777Z,98736.41
2022-10-31T18:51:50.818Z,98737.69
2022-10-31T18:54:17.841Z,98720.78
2022-10-31T18:56:44.733Z,98731.25
2022-10-31T18:59:12.186Z,98713.28
2022-10-31T19:01:39.810Z,98710.19
2022-10-31T19:04:06.817Z,98717.91
2022-10-31T19:06:33.948Z,98718.25
2022-10-31T19:09:05.958Z,98712.03
2022-10-31T19:11:34.302Z,98719.09
2022-10-31T19:14:01.297Z,98717.97
2022-10-31T19:16:28.917Z,98724.53
2022-10-31T19:18:57.119Z,98728.09
2022-10-31T19:21:24.446Z,98720.56
2022-10-31T19:23:53.711Z,98739.09
2022-10-31T19:26:20.492Z,98740.69
2022-10-31T19:28:47.314Z,98740.84
2022-10-31T19:31:14.051Z,98746.72
2022-10-31T19:33:40.706Z,98757.44
2022-10-31T19:36:14.217Z,98750.91
2022-10-31T19:38:45.865Z,98747.72
2022-10-31T19:41:16.881Z,98749.25
2022-10-31T19:43:44.086Z,98754.38
2022-10-31T19:46:22.451Z,98754.06
2022-10-31T19:48:55.194Z,98756.94
2022-10-31T19:51:22.194Z,98754.81
2022-10-31T19:53:52.421Z,98753.69
2022-10-31T19:56:22.793Z,98751.97
2022-10-31T19:58:49.409Z,98748.97
2022-10-31T20:01:20.878Z,98750.94
2022-10-31T20:03:48.655Z,98743.78
2022-10-31T20:06:32.404Z,98737.09
2022-10-31T20:09:01.304Z,98747.50
2022-10-31T20:11:28.773Z,98743.91
2022-10-31T20:13:57.353Z,98731.34
2022-10-31T20:16:24.893Z,98736.47
2022-10-31T20:18:51.801Z,98749.34
2022-10-31T20:21:28.455Z,98750.38
2022-10-31T20:24:01.130Z,98748.16
2022-10-31T20:26:29.353Z,98755.63
2022-10-31T20:28:57.767Z,98747.84
2022-10-31T20:31:28.316Z,98757.88
2022-10-31T20:33:55.773Z,98757.56
2022-10-31T20:36:23.284Z,98751.91
2022-10-31T20:38:52.232Z,98755.31
2022-10-31T20:41:19.545Z,98755.91
2022-10-31T20:43:46.566Z,98757.28
2022-10-31T20:46:23.365Z,98758.16
2022-10-31T20:48:50.822Z,98753.19
2022-10-31T20:51:24.668Z,98737.09
2022-10-31T20:53:53.295Z,98754.75
2022-10-31T20:56:22.782Z,98745.88
2022-10-31T20:58:50.313Z,98737.66
2022-10-31T21:01:26.155Z,98732.25
2022-10-31T21:03:54.140Z,98736.63
2022-10-31T21:06:23.161Z,98750.34
2022-10-31T21:08:50.837Z,98746.09
2022-10-31T21:11:21.126Z,98743.94
2022-10-31T21:13:49.198Z,98741.41
2022-10-31T21:16:22.240Z,98741.91
2022-10-31T21:18:50.147Z,98738.91
2022-10-31T21:21:32.113Z,98735.16
2022-10-31T21:24:05.337Z,98731.56
2022-10-31T21:26:40.262Z,98725.41
2022-10-31T21:29:08.242Z,98730.66
2022-10-31T21:31:36.778Z,98730.63
2022-10-31T21:34:03.870Z,98742.31
2022-10-31T21:36:30.826Z,98733.22
2022-10-31T21:38:57.639Z,98724.81
2022-10-31T21:41:25.614Z,98727.94
2022-10-31T21:43:54.250Z,98731.34
2022-10-31T21:46:25.199Z,98731.38
2022-10-31T21:48:52.658Z,98728.38
2022-10-31T21:51:29.085Z,98723.44
2022-10-31T21:54:15.371Z,98726.38
2022-10-31T21:56:42.262Z,98726.00
2022-10-31T21:59:09.074Z,98719.13
2022-10-31T22:01:36.353Z,98718.22
2022-10-31T22:04:04.346Z,98717.28
2022-10-31T22:06:31.148Z,98714.97
2022-10-31T22:09:00.092Z,98709.50
2022-10-31T22:11:28.333Z,98709.66
2022-10-31T22:13:55.931Z,98717.47
2022-10-31T22:16:25.076Z,98701.75
2022-10-31T22:18:55.032Z,98710.97
2022-10-31T22:21:25.527Z,98707.38
2022-10-31T22:23:54.625Z,98703.19
2022-10-31T22:26:21.685Z,98699.00
2022-10-31T22:28:55.854Z,98685.63
2022-10-31T22:31:24.246Z,98689.94
2022-10-31T22:33:52.002Z,98694.50
2022-10-31T22:36:22.693Z,98676.41
2022-10-31T22:38:49.806Z,98674.34
2022-10-31T22:41:20.400Z,98683.78
2022-10-31T22:43:47.750Z,98674.97
2022-10-31T22:46:36.123Z,98678.69
2022-10-31T22:49:14.790Z,98683.75
2022-10-31T22:51:42.886Z,98684.22
2022-10-31T22:54:18.023Z,98688.22
2022-10-31T22:56:44.938Z,98684.09
2022-10-31T22:59:16.522Z,98689.78
2022-10-31T23:01:47.280Z,98687.53
2022-10-31T23:04:16.267Z,98689.09
2022-10-31T23:06:43.431Z,98690.34
2022-10-31T23:09:15.567Z,98686.28
2022-10-31T23:11:42.571Z,98681.03
2022-10-31T23:14:19.330Z,98682.28
2022-10-31T23:16:52.883Z,98686.84
2022-10-31T23:19:28.802Z,98679.00
2022-10-31T23:22:04.763Z,98675.34
2022-10-31T23:24:44.058Z,98670.28
2022-10-31T23:27:23.630Z,98660.53
2022-10-31T23:29:51.267Z,98666.22
2022-10-31T23:32:28.043Z,98671.50
2022-10-31T23:34:57.795Z,98669.25
2022-10-31T23:37:27.652Z,98659.84
2022-10-31T23:39:56.177Z,98657.31
2022-10-31T23:42:24.611Z,98652.28
2022-10-31T23:44:51.774Z,98658.41
2022-10-31T23:47:19.341Z,98651.69
2022-10-31T23:49:46.541Z,98655.28
2022-10-31T23:52:14.542Z,98650.34
2022-10-31T23:54:41.435Z,98657.53
2022-10-31T23:57:09.615Z,98659.16
2022-10-31T23:59:36.728Z,98654.53
